sensor_id;sensor_type;location;lat;lon;timestamp;P1;durP1;ratioP1;P2;durP2;ratioP2
8574;SDS011;4325;42.520;27.448;2023-04-19T00:02:01;18.00;;;11.27;;
8574;SDS011;4325;42.520;27.448;2023-04-19T00:04:27;18.33;;;11.30;;
8574;SDS011;4325;42.520;27.448;2023-04-19T00:06:55;17.40;;;11.10;;
8574;SDS011;4325;42.520;27.448;2023-04-19T00:09:23;16.97;;;11.23;;
8574;SDS011;4325;42.520;27.448;2023-04-19T00:11:50;18.37;;;12.10;;
8574;SDS011;4325;42.520;27.448;2023-04-19T00:14:17;19.40;;;11.83;;
8574;SDS011;4325;42.520;27.448;2023-04-19T00:16:44;11.47;;;9.50;;
8574;SDS011;4325;42.520;27.448;2023-04-19T00:19:11;17.00;;;10.40;;
8574;SDS011;4325;42.520;27.448;2023-04-19T00:21:38;14.50;;;9.80;;
8574;SDS011;4325;42.520;27.448;2023-04-19T00:24:05;14.67;;;10.50;;
8574;SDS011;4325;42.520;27.448;2023-04-19T00:26:33;12.07;;;10.00;;
8574;SDS011;4325;42.520;27.448;2023-04-19T00:29:00;15.93;;;10.27;;
8574;SDS011;4325;42.520;27.448;2023-04-19T00:31:27;17.60;;;10.80;;
8574;SDS011;4325;42.520;27.448;2023-04-19T00:33:54;11.03;;;9.33;;
8574;SDS011;4325;42.520;27.448;2023-04-19T00:36:21;13.07;;;9.07;;
8574;SDS011;4325;42.520;27.448;2023-04-19T00:38:48;13.83;;;8.93;;
8574;SDS011;4325;42.520;27.448;2023-04-19T00:41:15;13.73;;;9.50;;
8574;SDS011;4325;42.520;27.448;2023-04-19T00:43:43;14.93;;;9.60;;
8574;SDS011;4325;42.520;27.448;2023-04-19T00:46:10;14.13;;;8.90;;
8574;SDS011;4325;42.520;27.448;2023-04-19T00:48:38;14.67;;;8.07;;
8574;SDS011;4325;42.520;27.448;2023-04-19T00:51:05;9.60;;;8.33;;
8574;SDS011;4325;42.520;27.448;2023-04-19T00:53:34;12.50;;;8.63;;
8574;SDS011;4325;42.520;27.448;2023-04-19T00:56:02;14.07;;;8.63;;
8574;SDS011;4325;42.520;27.448;2023-04-19T00:58:30;13.23;;;8.80;;
8574;SDS011;4325;42.520;27.448;2023-04-19T01:00:59;10.67;;;8.60;;
8574;SDS011;4325;42.520;27.448;2023-04-19T01:03:26;11.67;;;9.27;;
8574;SDS011;4325;42.520;27.448;2023-04-19T01:05:54;13.43;;;9.10;;
8574;SDS011;4325;42.520;27.448;2023-04-19T01:08:21;14.23;;;8.80;;
8574;SDS011;4325;42.520;27.448;2023-04-19T01:10:48;12.20;;;8.63;;
8574;SDS011;4325;42.520;27.448;2023-04-19T01:13:15;14.40;;;9.10;;
8574;SDS011;4325;42.520;27.448;2023-04-19T01:15:42;13.93;;;8.73;;
8574;SDS011;4325;42.520;27.448;2023-04-19T01:18:10;12.07;;;9.43;;
8574;SDS011;4325;42.520;27.448;2023-04-19T01:20:38;11.27;;;8.97;;
8574;SDS011;4325;42.520;27.448;2023-04-19T01:23:06;13.50;;;10.17;;
8574;SDS011;4325;42.520;27.448;2023-04-19T01:25:35;14.47;;;9.90;;
8574;SDS011;4325;42.520;27.448;2023-04-19T01:28:03;14.73;;;10.57;;
8574;SDS011;4325;42.520;27.448;2023-04-19T01:30:30;15.37;;;10.03;;
8574;SDS011;4325;42.520;27.448;2023-04-19T01:32:56;12.57;;;9.73;;
8574;SDS011;4325;42.520;27.448;2023-04-19T01:35:23;15.93;;;10.97;;
8574;SDS011;4325;42.520;27.448;2023-04-19T01:37:50;13.33;;;10.50;;
8574;SDS011;4325;42.520;27.448;2023-04-19T01:40:21;12.17;;;10.07;;
8574;SDS011;4325;42.520;27.448;2023-04-19T01:42:48;12.20;;;9.47;;
8574;SDS011;4325;42.520;27.448;2023-04-19T01:45:15;15.40;;;9.37;;
8574;SDS011;4325;42.520;27.448;2023-04-19T01:47:42;14.07;;;9.73;;
8574;SDS011;4325;42.520;27.448;2023-04-19T01:50:09;16.33;;;10.40;;
8574;SDS011;4325;42.520;27.448;2023-04-19T01:52:36;14.33;;;10.33;;
8574;SDS011;4325;42.520;27.448;2023-04-19T01:55:03;14.03;;;9.63;;
8574;SDS011;4325;42.520;27.448;2023-04-19T01:57:31;14.37;;;10.27;;
8574;SDS011;4325;42.520;27.448;2023-04-19T02:00:00;13.90;;;10.53;;
8574;SDS011;4325;42.520;27.448;2023-04-19T02:02:27;18.93;;;11.13;;
8574;SDS011;4325;42.520;27.448;2023-04-19T02:04:54;18.63;;;11.73;;
8574;SDS011;4325;42.520;27.448;2023-04-19T02:07:20;13.43;;;10.63;;
8574;SDS011;4325;42.520;27.448;2023-04-19T02:09:47;12.97;;;10.63;;
8574;SDS011;4325;42.520;27.448;2023-04-19T02:12:14;17.67;;;11.03;;
8574;SDS011;4325;42.520;27.448;2023-04-19T02:14:43;14.57;;;11.43;;
8574;SDS011;4325;42.520;27.448;2023-04-19T02:17:09;13.53;;;10.10;;
8574;SDS011;4325;42.520;27.448;2023-04-19T02:19:37;19.60;;;11.43;;
8574;SDS011;4325;42.520;27.448;2023-04-19T02:22:04;14.57;;;11.13;;
8574;SDS011;4325;42.520;27.448;2023-04-19T02:24:31;14.03;;;10.27;;
8574;SDS011;4325;42.520;27.448;2023-04-19T02:26:57;20.97;;;11.97;;
8574;SDS011;4325;42.520;27.448;2023-04-19T02:29:26;17.67;;;11.27;;
8574;SDS011;4325;42.520;27.448;2023-04-19T02:31:54;14.77;;;10.77;;
8574;SDS011;4325;42.520;27.448;2023-04-19T02:34:21;15.47;;;11.03;;
8574;SDS011;4325;42.520;27.448;2023-04-19T02:36:48;18.33;;;10.87;;
8574;SDS011;4325;42.520;27.448;2023-04-19T02:39:15;19.73;;;10.93;;
8574;SDS011;4325;42.520;27.448;2023-04-19T02:41:42;13.70;;;11.30;;
8574;SDS011;4325;42.520;27.448;2023-04-19T02:44:08;15.70;;;10.40;;
8574;SDS011;4325;42.520;27.448;2023-04-19T02:46:35;15.40;;;11.00;;
8574;SDS011;4325;42.520;27.448;2023-04-19T02:49:03;15.57;;;11.17;;
8574;SDS011;4325;42.520;27.448;2023-04-19T02:51:30;14.50;;;10.57;;
8574;SDS011;4325;42.520;27.448;2023-04-19T02:53:57;13.93;;;11.40;;
8574;SDS011;4325;42.520;27.448;2023-04-19T02:56:24;17.10;;;11.83;;
8574;SDS011;4325;42.520;27.448;2023-04-19T02:58:51;13.83;;;11.43;;
8574;SDS011;4325;42.520;27.448;2023-04-19T03:01:18;16.47;;;11.53;;
8574;SDS011;4325;42.520;27.448;2023-04-19T03:03:45;15.23;;;11.17;;
8574;SDS011;4325;42.520;27.448;2023-04-19T03:06:13;15.80;;;11.23;;
8574;SDS011;4325;42.520;27.448;2023-04-19T03:08:41;18.40;;;12.13;;
8574;SDS011;4325;42.520;27.448;2023-04-19T03:11:07;20.37;;;11.77;;
8574;SDS011;4325;42.520;27.448;2023-04-19T03:13:34;15.73;;;11.97;;
8574;SDS011;4325;42.520;27.448;2023-04-19T03:16:01;16.87;;;12.77;;
8574;SDS011;4325;42.520;27.448;2023-04-19T03:18:28;15.63;;;12.50;;
8574;SDS011;4325;42.520;27.448;2023-04-19T03:20:55;19.07;;;11.87;;
8574;SDS011;4325;42.520;27.448;2023-04-19T03:23:24;16.97;;;11.63;;
8574;SDS011;4325;42.520;27.448;2023-04-19T03:25:51;19.00;;;12.47;;
8574;SDS011;4325;42.520;27.448;2023-04-19T03:28:18;17.53;;;12.73;;
8574;SDS011;4325;42.520;27.448;2023-04-19T03:30:45;16.03;;;12.70;;
8574;SDS011;4325;42.520;27.448;2023-04-19T03:33:11;18.13;;;13.40;;
8574;SDS011;4325;42.520;27.448;2023-04-19T03:35:38;20.23;;;13.93;;
8574;SDS011;4325;42.520;27.448;2023-04-19T03:38:05;20.50;;;12.43;;
8574;SDS011;4325;42.520;27.448;2023-04-19T03:40:35;18.13;;;13.93;;
8574;SDS011;4325;42.520;27.448;2023-04-19T03:43:02;23.13;;;14.53;;
8574;SDS011;4325;42.520;27.448;2023-04-19T03:45:29;17.90;;;13.13;;
8574;SDS011;4325;42.520;27.448;2023-04-19T03:47:56;19.13;;;13.67;;
8574;SDS011;4325;42.520;27.448;2023-04-19T03:50:23;18.70;;;14.60;;
8574;SDS011;4325;42.520;27.448;2023-04-19T03:52:50;20.23;;;14.70;;
8574;SDS011;4325;42.520;27.448;2023-04-19T03:55:17;22.00;;;15.63;;
8574;SDS011;4325;42.520;27.448;2023-04-19T03:57:45;21.87;;;14.93;;
8574;SDS011;4325;42.520;27.448;2023-04-19T04:00:12;19.90;;;14.70;;
8574;SDS011;4325;42.520;27.448;2023-04-19T04:02:40;23.20;;;15.20;;
8574;SDS011;4325;42.520;27.448;2023-04-19T04:05:07;20.83;;;15.27;;
8574;SDS011;4325;42.520;27.448;2023-04-19T04:07:34;17.63;;;15.37;;
8574;SDS011;4325;42.520;27.448;2023-04-19T04:10:01;23.20;;;15.83;;
8574;SDS011;4325;42.520;27.448;2023-04-19T04:12:28;22.67;;;16.20;;
8574;SDS011;4325;42.520;27.448;2023-04-19T04:14:56;21.03;;;14.83;;
8574;SDS011;4325;42.520;27.448;2023-04-19T04:17:23;26.53;;;17.70;;
8574;SDS011;4325;42.520;27.448;2023-04-19T04:19:50;22.50;;;15.27;;
8574;SDS011;4325;42.520;27.448;2023-04-19T04:22:17;20.13;;;15.33;;
8574;SDS011;4325;42.520;27.448;2023-04-19T04:24:43;20.33;;;15.47;;
8574;SDS011;4325;42.520;27.448;2023-04-19T04:27:11;23.37;;;15.20;;
8574;SDS011;4325;42.520;27.448;2023-04-19T04:29:38;24.30;;;16.83;;
8574;SDS011;4325;42.520;27.448;2023-04-19T04:32:07;27.50;;;19.47;;
8574;SDS011;4325;42.520;27.448;2023-04-19T04:34:34;27.23;;;19.93;;
8574;SDS011;4325;42.520;27.448;2023-04-19T04:37:01;25.47;;;18.50;;
8574;SDS011;4325;42.520;27.448;2023-04-19T04:39:29;24.53;;;18.63;;
8574;SDS011;4325;42.520;27.448;2023-04-19T04:41:59;22.13;;;16.67;;
8574;SDS011;4325;42.520;27.448;2023-04-19T04:44:25;18.07;;;14.80;;
8574;SDS011;4325;42.520;27.448;2023-04-19T04:46:53;17.63;;;14.07;;
8574;SDS011;4325;42.520;27.448;2023-04-19T04:49:21;15.17;;;11.83;;
8574;SDS011;4325;42.520;27.448;2023-04-19T04:51:48;15.23;;;13.03;;
8574;SDS011;4325;42.520;27.448;2023-04-19T04:54:15;14.37;;;11.77;;
8574;SDS011;4325;42.520;27.448;2023-04-19T04:56:41;15.93;;;13.50;;
8574;SDS011;4325;42.520;27.448;2023-04-19T04:59:08;16.60;;;13.80;;
8574;SDS011;4325;42.520;27.448;2023-04-19T05:01:35;18.00;;;15.10;;
8574;SDS011;4325;42.520;27.448;2023-04-19T05:04:02;15.60;;;13.90;;
8574;SDS011;4325;42.520;27.448;2023-04-19T05:06:30;17.57;;;12.37;;
8574;SDS011;4325;42.520;27.448;2023-04-19T05:08:57;11.93;;;10.57;;
8574;SDS011;4325;42.520;27.448;2023-04-19T05:11:24;13.10;;;11.50;;
8574;SDS011;4325;42.520;27.448;2023-04-19T05:13:52;13.40;;;11.50;;
8574;SDS011;4325;42.520;27.448;2023-04-19T05:16:19;19.33;;;13.53;;
8574;SDS011;4325;42.520;27.448;2023-04-19T05:18:46;12.77;;;10.50;;
8574;SDS011;4325;42.520;27.448;2023-04-19T05:21:13;17.90;;;14.00;;
8574;SDS011;4325;42.520;27.448;2023-04-19T05:23:41;12.70;;;10.37;;
8574;SDS011;4325;42.520;27.448;2023-04-19T05:26:08;15.80;;;12.60;;
8574;SDS011;4325;42.520;27.448;2023-04-19T05:28:36;15.20;;;11.10;;
8574;SDS011;4325;42.520;27.448;2023-04-19T05:31:03;13.00;;;10.57;;
8574;SDS011;4325;42.520;27.448;2023-04-19T05:33:30;10.83;;;8.57;;
8574;SDS011;4325;42.520;27.448;2023-04-19T05:35:57;9.67;;;8.67;;
8574;SDS011;4325;42.520;27.448;2023-04-19T05:38:24;12.37;;;8.63;;
8574;SDS011;4325;42.520;27.448;2023-04-19T05:40:52;8.83;;;7.50;;
8574;SDS011;4325;42.520;27.448;2023-04-19T05:43:19;12.70;;;8.77;;
8574;SDS011;4325;42.520;27.448;2023-04-19T05:45:47;10.13;;;9.03;;
8574;SDS011;4325;42.520;27.448;2023-04-19T05:48:13;10.87;;;8.23;;
8574;SDS011;4325;42.520;27.448;2023-04-19T05:50:40;11.20;;;8.10;;
8574;SDS011;4325;42.520;27.448;2023-04-19T05:53:07;9.00;;;7.87;;
8574;SDS011;4325;42.520;27.448;2023-04-19T05:55:34;9.27;;;8.37;;
8574;SDS011;4325;42.520;27.448;2023-04-19T05:58:02;8.70;;;7.47;;
8574;SDS011;4325;42.520;27.448;2023-04-19T06:00:29;9.17;;;7.30;;
8574;SDS011;4325;42.520;27.448;2023-04-19T06:02:56;11.37;;;7.37;;
8574;SDS011;4325;42.520;27.448;2023-04-19T06:05:23;8.70;;;7.57;;
8574;SDS011;4325;42.520;27.448;2023-04-19T06:07:50;10.70;;;7.97;;
8574;SDS011;4325;42.520;27.448;2023-04-19T06:10:20;7.57;;;6.87;;
8574;SDS011;4325;42.520;27.448;2023-04-19T06:12:47;8.07;;;7.20;;
8574;SDS011;4325;42.520;27.448;2023-04-19T06:15:15;7.67;;;6.93;;
8574;SDS011;4325;42.520;27.448;2023-04-19T06:17:42;11.60;;;7.40;;
8574;SDS011;4325;42.520;27.448;2023-04-19T06:20:09;11.20;;;7.50;;
8574;SDS011;4325;42.520;27.448;2023-04-19T06:22:40;9.67;;;7.87;;
8574;SDS011;4325;42.520;27.448;2023-04-19T06:25:09;8.70;;;6.93;;
8574;SDS011;4325;42.520;27.448;2023-04-19T06:27:35;8.87;;;7.33;;
8574;SDS011;4325;42.520;27.448;2023-04-19T06:30:02;11.43;;;7.57;;
8574;SDS011;4325;42.520;27.448;2023-04-19T06:32:31;11.80;;;7.67;;
8574;SDS011;4325;42.520;27.448;2023-04-19T06:34:58;8.23;;;7.20;;
8574;SDS011;4325;42.520;27.448;2023-04-19T06:37:25;11.50;;;8.23;;
8574;SDS011;4325;42.520;27.448;2023-04-19T06:39:51;10.83;;;8.00;;
8574;SDS011;4325;42.520;27.448;2023-04-19T06:42:18;8.47;;;7.00;;
8574;SDS011;4325;42.520;27.448;2023-04-19T06:44:45;8.83;;;7.13;;
8574;SDS011;4325;42.520;27.448;2023-04-19T06:47:12;11.63;;;7.57;;
8574;SDS011;4325;42.520;27.448;2023-04-19T06:49:40;10.33;;;7.77;;
8574;SDS011;4325;42.520;27.448;2023-04-19T06:52:07;9.17;;;7.90;;
8574;SDS011;4325;42.520;27.448;2023-04-19T06:54:34;11.63;;;8.77;;
8574;SDS011;4325;42.520;27.448;2023-04-19T06:57:01;13.43;;;9.00;;
8574;SDS011;4325;42.520;27.448;2023-04-19T06:59:28;10.90;;;7.63;;
8574;SDS011;4325;42.520;27.448;2023-04-19T07:01:56;11.93;;;7.67;;
8574;SDS011;4325;42.520;27.448;2023-04-19T07:04:24;7.77;;;6.63;;
8574;SDS011;4325;42.520;27.448;2023-04-19T07:06:52;16.70;;;8.90;;
8574;SDS011;4325;42.520;27.448;2023-04-19T07:09:19;8.60;;;7.37;;
8574;SDS011;4325;42.520;27.448;2023-04-19T07:11:46;13.10;;;7.57;;
8574;SDS011;4325;42.520;27.448;2023-04-19T07:14:15;19.03;;;7.47;;
8574;SDS011;4325;42.520;27.448;2023-04-19T07:16:43;11.13;;;7.33;;
8574;SDS011;4325;42.520;27.448;2023-04-19T07:19:10;9.03;;;6.97;;
8574;SDS011;4325;42.520;27.448;2023-04-19T07:21:37;17.10;;;8.90;;
8574;SDS011;4325;42.520;27.448;2023-04-19T07:24:06;9.33;;;8.13;;
8574;SDS011;4325;42.520;27.448;2023-04-19T07:26:33;14.37;;;9.27;;
8574;SDS011;4325;42.520;27.448;2023-04-19T07:29:00;20.60;;;10.77;;
8574;SDS011;4325;42.520;27.448;2023-04-19T07:31:27;15.73;;;9.40;;
8574;SDS011;4325;42.520;27.448;2023-04-19T07:33:54;11.77;;;8.83;;
8574;SDS011;4325;42.520;27.448;2023-04-19T07:36:20;16.13;;;10.67;;
8574;SDS011;4325;42.520;27.448;2023-04-19T07:38:47;15.77;;;10.17;;
8574;SDS011;4325;42.520;27.448;2023-04-19T07:41:15;15.63;;;10.67;;
8574;SDS011;4325;42.520;27.448;2023-04-19T07:43:42;16.90;;;10.70;;
8574;SDS011;4325;42.520;27.448;2023-04-19T07:46:09;14.13;;;11.20;;
8574;SDS011;4325;42.520;27.448;2023-04-19T07:48:37;15.20;;;11.87;;
8574;SDS011;4325;42.520;27.448;2023-04-19T07:51:07;16.00;;;10.53;;
8574;SDS011;4325;42.520;27.448;2023-04-19T07:53:35;16.70;;;10.17;;
8574;SDS011;4325;42.520;27.448;2023-04-19T07:56:03;17.90;;;9.90;;
8574;SDS011;4325;42.520;27.448;2023-04-19T07:58:32;18.97;;;13.20;;
8574;SDS011;4325;42.520;27.448;2023-04-19T08:00:59;14.77;;;8.63;;
8574;SDS011;4325;42.520;27.448;2023-04-19T08:03:26;14.50;;;8.10;;
8574;SDS011;4325;42.520;27.448;2023-04-19T08:05:53;8.27;;;6.80;;
8574;SDS011;4325;42.520;27.448;2023-04-19T08:08:20;13.07;;;5.83;;
8574;SDS011;4325;42.520;27.448;2023-04-19T08:10:47;6.13;;;5.03;;
8574;SDS011;4325;42.520;27.448;2023-04-19T08:13:14;10.20;;;3.77;;
8574;SDS011;4325;42.520;27.448;2023-04-19T08:15:43;12.67;;;4.10;;
8574;SDS011;4325;42.520;27.448;2023-04-19T08:18:10;4.30;;;3.50;;
8574;SDS011;4325;42.520;27.448;2023-04-19T08:20:37;7.00;;;3.77;;
8574;SDS011;4325;42.520;27.448;2023-04-19T08:23:06;3.97;;;2.27;;
8574;SDS011;4325;42.520;27.448;2023-04-19T08:25:33;3.27;;;2.80;;
8574;SDS011;4325;42.520;27.448;2023-04-19T08:28:01;2.93;;;2.00;;
8574;SDS011;4325;42.520;27.448;2023-04-19T08:30:28;4.60;;;1.90;;
8574;SDS011;4325;42.520;27.448;2023-04-19T08:32:56;3.10;;;2.27;;
8574;SDS011;4325;42.520;27.448;2023-04-19T08:35:23;2.00;;;1.57;;
8574;SDS011;4325;42.520;27.448;2023-04-19T08:37:50;3.77;;;2.20;;
8574;SDS011;4325;42.520;27.448;2023-04-19T08:40:17;3.63;;;1.93;;
8574;SDS011;4325;42.520;27.448;2023-04-19T08:42:44;2.20;;;2.00;;
8574;SDS011;4325;42.520;27.448;2023-04-19T08:45:10;3.60;;;1.97;;
8574;SDS011;4325;42.520;27.448;2023-04-19T08:47:39;3.33;;;1.70;;
8574;SDS011;4325;42.520;27.448;2023-04-19T08:50:08;2.07;;;1.60;;
8574;SDS011;4325;42.520;27.448;2023-04-19T08:52:36;3.60;;;1.87;;
8574;SDS011;4325;42.520;27.448;2023-04-19T08:55:04;2.87;;;1.40;;
8574;SDS011;4325;42.520;27.448;2023-04-19T08:57:33;1.70;;;1.60;;
8574;SDS011;4325;42.520;27.448;2023-04-19T09:00:01;1.83;;;1.40;;
8574;SDS011;4325;42.520;27.448;2023-04-19T09:02:42;3.00;;;1.73;;
8574;SDS011;4325;42.520;27.448;2023-04-19T09:05:12;3.63;;;1.73;;
8574;SDS011;4325;42.520;27.448;2023-04-19T09:07:39;2.10;;;1.53;;
8574;SDS011;4325;42.520;27.448;2023-04-19T09:10:07;2.80;;;1.70;;
8574;SDS011;4325;42.520;27.448;2023-04-19T09:12:35;5.63;;;1.70;;
8574;SDS011;4325;42.520;27.448;2023-04-19T09:15:03;5.10;;;2.30;;
8574;SDS011;4325;42.520;27.448;2023-04-19T09:17:33;4.60;;;1.90;;
8574;SDS011;4325;42.520;27.448;2023-04-19T09:20:00;3.30;;;1.90;;
8574;SDS011;4325;42.520;27.448;2023-04-19T09:22:30;3.67;;;2.00;;
8574;SDS011;4325;42.520;27.448;2023-04-19T09:24:58;3.73;;;1.73;;
8574;SDS011;4325;42.520;27.448;2023-04-19T09:27:26;3.47;;;2.10;;
8574;SDS011;4325;42.520;27.448;2023-04-19T09:29:54;4.70;;;2.53;;
8574;SDS011;4325;42.520;27.448;2023-04-19T09:32:21;3.03;;;1.90;;
8574;SDS011;4325;42.520;27.448;2023-04-19T09:34:51;6.77;;;2.10;;
8574;SDS011;4325;42.520;27.448;2023-04-19T09:37:20;2.50;;;2.30;;
8574;SDS011;4325;42.520;27.448;2023-04-19T09:39:49;2.40;;;2.20;;
8574;SDS011;4325;42.520;27.448;2023-04-19T09:42:16;4.27;;;2.43;;
8574;SDS011;4325;42.520;27.448;2023-04-19T09:44:56;2.90;;;2.63;;
8574;SDS011;4325;42.520;27.448;2023-04-19T09:47:24;4.70;;;2.07;;
8574;SDS011;4325;42.520;27.448;2023-04-19T09:52:37;1.70;;;1.60;;
8574;SDS011;4325;42.520;27.448;2023-04-19T09:55:05;2.90;;;1.60;;
8574;SDS011;4325;42.520;27.448;2023-04-19T09:57:33;2.27;;;1.87;;
8574;SDS011;4325;42.520;27.448;2023-04-19T10:00:00;2.47;;;2.17;;
8574;SDS011;4325;42.520;27.448;2023-04-19T10:02:31;3.47;;;1.90;;
8574;SDS011;4325;42.520;27.448;2023-04-19T10:04:58;4.07;;;2.57;;
8574;SDS011;4325;42.520;27.448;2023-04-19T10:07:26;2.57;;;2.20;;
8574;SDS011;4325;42.520;27.448;2023-04-19T10:09:54;3.37;;;2.30;;
8574;SDS011;4325;42.520;27.448;2023-04-19T10:12:24;1.53;;;1.43;;
8574;SDS011;4325;42.520;27.448;2023-04-19T10:14:53;1.90;;;1.70;;
8574;SDS011;4325;42.520;27.448;2023-04-19T10:17:21;3.00;;;1.67;;
8574;SDS011;4325;42.520;27.448;2023-04-19T10:19:51;2.77;;;1.50;;
8574;SDS011;4325;42.520;27.448;2023-04-19T10:22:22;1.80;;;1.70;;
8574;SDS011;4325;42.520;27.448;2023-04-19T10:25:08;1.73;;;1.60;;
8574;SDS011;4325;42.520;27.448;2023-04-19T10:27:38;4.63;;;2.20;;
8574;SDS011;4325;42.520;27.448;2023-04-19T10:30:15;5.53;;;4.23;;
8574;SDS011;4325;42.520;27.448;2023-04-19T10:32:43;4.70;;;2.60;;
8574;SDS011;4325;42.520;27.448;2023-04-19T10:35:16;3.07;;;2.73;;
8574;SDS011;4325;42.520;27.448;2023-04-19T10:43:24;3.73;;;2.00;;
8574;SDS011;4325;42.520;27.448;2023-04-19T10:45:52;1.97;;;1.77;;
8574;SDS011;4325;42.520;27.448;2023-04-19T10:48:32;3.10;;;1.90;;
8574;SDS011;4325;42.520;27.448;2023-04-19T10:51:11;2.50;;;1.70;;
8574;SDS011;4325;42.520;27.448;2023-04-19T10:59:37;5.33;;;1.60;;
8574;SDS011;4325;42.520;27.448;2023-04-19T11:02:04;5.70;;;1.77;;
8574;SDS011;4325;42.520;27.448;2023-04-19T11:04:58;3.70;;;1.80;;
8574;SDS011;4325;42.520;27.448;2023-04-19T11:07:26;2.77;;;1.77;;
8574;SDS011;4325;42.520;27.448;2023-04-19T11:09:53;2.57;;;1.53;;
8574;SDS011;4325;42.520;27.448;2023-04-19T11:12:20;5.10;;;2.30;;
8574;SDS011;4325;42.520;27.448;2023-04-19T11:14:50;8.63;;;1.83;;
8574;SDS011;4325;42.520;27.448;2023-04-19T11:17:18;1.60;;;1.50;;
8574;SDS011;4325;42.520;27.448;2023-04-19T11:19:52;4.70;;;1.50;;
8574;SDS011;4325;42.520;27.448;2023-04-19T11:22:23;2.03;;;1.60;;
8574;SDS011;4325;42.520;27.448;2023-04-19T11:24:51;3.20;;;1.90;;
8574;SDS011;4325;42.520;27.448;2023-04-19T11:27:18;1.83;;;1.60;;
8574;SDS011;4325;42.520;27.448;2023-04-19T11:29:46;1.60;;;1.50;;
8574;SDS011;4325;42.520;27.448;2023-04-19T11:32:15;2.93;;;1.73;;
8574;SDS011;4325;42.520;27.448;2023-04-19T11:34:41;2.37;;;1.83;;
8574;SDS011;4325;42.520;27.448;2023-04-19T11:37:08;1.87;;;1.50;;
8574;SDS011;4325;42.520;27.448;2023-04-19T11:39:43;2.43;;;1.80;;
8574;SDS011;4325;42.520;27.448;2023-04-19T11:42:15;4.97;;;1.80;;
8574;SDS011;4325;42.520;27.448;2023-04-19T11:44:48;5.27;;;1.93;;
8574;SDS011;4325;42.520;27.448;2023-04-19T11:47:16;3.83;;;1.63;;
8574;SDS011;4325;42.520;27.448;2023-04-19T11:49:43;4.57;;;1.90;;
8574;SDS011;4325;42.520;27.448;2023-04-19T11:52:10;2.87;;;1.93;;
8574;SDS011;4325;42.520;27.448;2023-04-19T11:54:37;2.90;;;1.43;;
8574;SDS011;4325;42.520;27.448;2023-04-19T11:57:04;2.80;;;1.37;;
8574;SDS011;4325;42.520;27.448;2023-04-19T11:59:33;5.23;;;1.53;;
8574;SDS011;4325;42.520;27.448;2023-04-19T12:02:05;4.27;;;1.67;;
8574;SDS011;4325;42.520;27.448;2023-04-19T12:04:33;2.10;;;2.00;;
8574;SDS011;4325;42.520;27.448;2023-04-19T12:07:01;2.60;;;1.93;;
8574;SDS011;4325;42.520;27.448;2023-04-19T12:09:31;2.30;;;1.83;;
8574;SDS011;4325;42.520;27.448;2023-04-19T12:11:59;3.10;;;2.47;;
8574;SDS011;4325;42.520;27.448;2023-04-19T12:14:26;3.27;;;2.53;;
8574;SDS011;4325;42.520;27.448;2023-04-19T12:17:03;4.30;;;3.37;;
8574;SDS011;4325;42.520;27.448;2023-04-19T12:19:33;3.80;;;2.70;;
8574;SDS011;4325;42.520;27.448;2023-04-19T12:22:08;3.90;;;1.97;;
8574;SDS011;4325;42.520;27.448;2023-04-19T12:24:39;4.10;;;2.50;;
8574;SDS011;4325;42.520;27.448;2023-04-19T12:27:06;5.97;;;1.93;;
8574;SDS011;4325;42.520;27.448;2023-04-19T12:29:33;2.97;;;2.27;;
8574;SDS011;4325;42.520;27.448;2023-04-19T12:32:00;3.20;;;2.23;;
8574;SDS011;4325;42.520;27.448;2023-04-19T12:34:29;7.30;;;2.40;;
8574;SDS011;4325;42.520;27.448;2023-04-19T12:36:56;6.07;;;2.47;;
8574;SDS011;4325;42.520;27.448;2023-04-19T12:39:23;6.60;;;2.20;;
8574;SDS011;4325;42.520;27.448;2023-04-19T12:41:50;5.07;;;3.20;;
8574;SDS011;4325;42.520;27.448;2023-04-19T12:44:16;6.47;;;3.30;;
8574;SDS011;4325;42.520;27.448;2023-04-19T12:46:43;3.37;;;2.37;;
8574;SDS011;4325;42.520;27.448;2023-04-19T12:49:10;4.97;;;2.40;;
8574;SDS011;4325;42.520;27.448;2023-04-19T12:51:38;4.83;;;2.57;;
8574;SDS011;4325;42.520;27.448;2023-04-19T12:54:06;2.73;;;2.00;;
8574;SDS011;4325;42.520;27.448;2023-04-19T12:56:33;2.80;;;2.20;;
8574;SDS011;4325;42.520;27.448;2023-04-19T12:59:00;5.27;;;2.30;;
8574;SDS011;4325;42.520;27.448;2023-04-19T13:01:27;5.27;;;2.07;;
8574;SDS011;4325;42.520;27.448;2023-04-19T13:03:54;2.90;;;2.13;;
8574;SDS011;4325;42.520;27.448;2023-04-19T13:06:20;3.53;;;2.80;;
8574;SDS011;4325;42.520;27.448;2023-04-19T13:08:48;6.67;;;5.03;;
8574;SDS011;4325;42.520;27.448;2023-04-19T13:11:15;7.63;;;3.10;;
8574;SDS011;4325;42.520;27.448;2023-04-19T13:13:47;7.57;;;5.90;;
8574;SDS011;4325;42.520;27.448;2023-04-19T13:16:15;3.83;;;2.87;;
8574;SDS011;4325;42.520;27.448;2023-04-19T13:18:42;5.63;;;2.80;;
8574;SDS011;4325;42.520;27.448;2023-04-19T13:21:09;5.37;;;2.60;;
8574;SDS011;4325;42.520;27.448;2023-04-19T13:23:36;3.90;;;2.53;;
8574;SDS011;4325;42.520;27.448;2023-04-19T13:26:04;4.03;;;2.33;;
8574;SDS011;4325;42.520;27.448;2023-04-19T13:28:32;2.80;;;2.40;;
8574;SDS011;4325;42.520;27.448;2023-04-19T13:31:00;4.07;;;2.70;;
8574;SDS011;4325;42.520;27.448;2023-04-19T13:33:28;3.53;;;2.60;;
8574;SDS011;4325;42.520;27.448;2023-04-19T13:35:55;8.87;;;3.30;;
8574;SDS011;4325;42.520;27.448;2023-04-19T13:38:22;5.43;;;3.13;;
8574;SDS011;4325;42.520;27.448;2023-04-19T13:40:49;4.80;;;2.90;;
8574;SDS011;4325;42.520;27.448;2023-04-19T13:43:17;5.20;;;3.00;;
8574;SDS011;4325;42.520;27.448;2023-04-19T13:45:44;8.40;;;3.20;;
8574;SDS011;4325;42.520;27.448;2023-04-19T13:48:11;4.63;;;3.37;;
8574;SDS011;4325;42.520;27.448;2023-04-19T13:50:37;4.57;;;3.00;;
8574;SDS011;4325;42.520;27.448;2023-04-19T13:53:04;7.67;;;3.40;;
8574;SDS011;4325;42.520;27.448;2023-04-19T13:55:31;6.83;;;4.23;;
8574;SDS011;4325;42.520;27.448;2023-04-19T13:57:58;8.87;;;3.27;;
8574;SDS011;4325;42.520;27.448;2023-04-19T14:00:27;3.93;;;2.70;;
8574;SDS011;4325;42.520;27.448;2023-04-19T14:02:54;3.50;;;3.00;;
8574;SDS011;4325;42.520;27.448;2023-04-19T14:05:21;7.50;;;3.13;;
8574;SDS011;4325;42.520;27.448;2023-04-19T14:07:48;6.27;;;3.40;;
8574;SDS011;4325;42.520;27.448;2023-04-19T14:10:16;6.83;;;3.40;;
8574;SDS011;4325;42.520;27.448;2023-04-19T14:12:43;6.33;;;2.97;;
8574;SDS011;4325;42.520;27.448;2023-04-19T14:15:10;5.37;;;3.33;;
8574;SDS011;4325;42.520;27.448;2023-04-19T14:17:39;6.87;;;3.40;;
8574;SDS011;4325;42.520;27.448;2023-04-19T14:20:06;11.17;;;3.50;;
8574;SDS011;4325;42.520;27.448;2023-04-19T14:22:34;5.40;;;3.40;;
8574;SDS011;4325;42.520;27.448;2023-04-19T14:25:01;8.87;;;4.60;;
8574;SDS011;4325;42.520;27.448;2023-04-19T14:27:28;6.87;;;3.60;;
8574;SDS011;4325;42.520;27.448;2023-04-19T14:29:54;5.73;;;3.90;;
8574;SDS011;4325;42.520;27.448;2023-04-19T14:32:21;7.10;;;2.80;;
8574;SDS011;4325;42.520;27.448;2023-04-19T14:34:50;9.17;;;3.37;;
8574;SDS011;4325;42.520;27.448;2023-04-19T14:37:17;7.37;;;3.63;;
8574;SDS011;4325;42.520;27.448;2023-04-19T14:39:44;6.83;;;3.33;;
8574;SDS011;4325;42.520;27.448;2023-04-19T14:42:11;6.80;;;5.77;;
8574;SDS011;4325;42.520;27.448;2023-04-19T14:44:38;6.53;;;5.70;;
8574;SDS011;4325;42.520;27.448;2023-04-19T14:47:06;8.00;;;5.60;;
8574;SDS011;4325;42.520;27.448;2023-04-19T14:49:32;10.67;;;3.37;;
8574;SDS011;4325;42.520;27.448;2023-04-19T14:52:01;4.23;;;3.00;;
8574;SDS011;4325;42.520;27.448;2023-04-19T14:54:28;4.77;;;3.13;;
8574;SDS011;4325;42.520;27.448;2023-04-19T14:56:55;5.07;;;3.37;;
8574;SDS011;4325;42.520;27.448;2023-04-19T14:59:22;5.97;;;4.10;;
8574;SDS011;4325;42.520;27.448;2023-04-19T15:01:49;5.93;;;3.67;;
8574;SDS011;4325;42.520;27.448;2023-04-19T15:04:16;8.83;;;3.40;;
8574;SDS011;4325;42.520;27.448;2023-04-19T15:06:43;6.53;;;4.13;;
8574;SDS011;4325;42.520;27.448;2023-04-19T15:09:11;5.60;;;3.70;;